createdAt,value
2018-06-12T00:02:56.672Z,21.50
2018-06-12T00:05:26.595Z,21.50
2018-06-12T00:07:55.515Z,21.50
2018-06-12T00:10:23.953Z,21.40
2018-06-12T00:12:52.570Z,21.40
2018-06-12T00:15:23.218Z,21.40
2018-06-12T00:17:51.627Z,21.40
2018-06-12T00:20:20.080Z,21.30
2018-06-12T00:22:49.048Z,21.30
2018-06-12T00:25:17.859Z,21.20
2018-06-12T00:27:47.169Z,21.20
2018-06-12T00:30:15.584Z,21.20
2018-06-12T00:32:44.000Z,21.20
2018-06-12T00:35:12.420Z,21.10
2018-06-12T00:37:41.259Z,21.10
2018-06-12T00:40:11.288Z,21.00
2018-06-12T00:42:40.228Z,21.10
2018-06-12T00:45:08.673Z,21.20
2018-06-12T00:47:37.091Z,21.30
2018-06-12T00:50:05.537Z,21.40
2018-06-12T00:52:34.001Z,21.40
2018-06-12T00:55:02.753Z,21.40
2018-06-12T00:57:31.877Z,21.30
2018-06-12T01:00:00.312Z,21.40
2018-06-12T01:02:29.040Z,21.30
2018-06-12T01:04:58.433Z,21.40
2018-06-12T01:07:27.117Z,21.50
2018-06-12T01:09:55.548Z,21.40
2018-06-12T01:12:24.330Z,21.30
2018-06-12T01:14:53.012Z,21.30
2018-06-12T01:17:21.471Z,21.30
2018-06-12T01:19:50.678Z,21.20
2018-06-12T01:22:19.099Z,21.30
2018-06-12T01:24:47.499Z,21.30
2018-06-12T01:27:15.924Z,21.30
2018-06-12T01:29:44.332Z,21.30
2018-06-12T01:32:12.775Z,21.20
2018-06-12T01:34:41.766Z,21.20
2018-06-12T01:37:10.295Z,21.10
2018-06-12T01:39:39.103Z,21.10
2018-06-12T01:42:07.976Z,21.10
2018-06-12T01:44:36.404Z,21.20
2018-06-12T01:47:05.065Z,21.20
2018-06-12T01:49:33.501Z,21.30
2018-06-12T01:52:01.948Z,21.30
2018-06-12T01:54:30.364Z,21.20
2018-06-12T01:56:58.814Z,21.10
2018-06-12T01:59:27.671Z,21.10
2018-06-12T02:01:56.093Z,21.10
2018-06-12T02:04:24.507Z,21.10
2018-06-12T02:06:52.937Z,21.20
2018-06-12T02:09:21.375Z,21.20
2018-06-12T02:11:49.809Z,21.20
2018-06-12T02:14:18.512Z,21.20
2018-06-12T02:16:46.960Z,21.10
2018-06-12T02:19:15.389Z,21.10
2018-06-12T02:21:43.845Z,21.10
2018-06-12T02:24:12.592Z,21.10
2018-06-12T02:26:41.045Z,21.10
2018-06-12T02:29:10.956Z,21.00
2018-06-12T02:31:39.400Z,21.00
2018-06-12T02:34:09.140Z,21.00
2018-06-12T02:36:37.825Z,21.00
2018-06-12T02:39:07.966Z,21.00
2018-06-12T02:41:36.410Z,21.00
2018-06-12T02:44:05.788Z,21.00
2018-06-12T02:47:59.035Z,21.10
2018-06-12T02:50:27.738Z,21.10
2018-06-12T02:55:24.537Z,21.00
2018-06-12T02:57:52.976Z,21.00
2018-06-12T03:00:21.388Z,20.80
2018-06-12T03:02:54.174Z,20.70
2018-06-12T03:05:23.531Z,20.60
2018-06-12T03:07:51.995Z,20.60
2018-06-12T03:10:20.656Z,20.80
2018-06-12T03:12:49.992Z,20.80
2018-06-12T03:15:18.415Z,20.70
2018-06-12T03:17:46.851Z,20.50
2018-06-12T03:20:15.632Z,20.40
2018-06-12T03:22:45.016Z,20.40
2018-06-12T03:25:13.812Z,20.60
2018-06-12T03:27:42.260Z,20.60
2018-06-12T03:30:11.069Z,20.70
2018-06-12T03:32:39.495Z,20.80
2018-06-12T03:35:07.915Z,20.90
2018-06-12T03:37:37.380Z,20.90
2018-06-12T03:40:05.791Z,20.70
2018-06-12T03:42:34.238Z,20.60
2018-06-12T03:45:02.656Z,20.70
2018-06-12T03:47:31.119Z,20.50
2018-06-12T03:50:03.863Z,20.50
2018-06-12T03:52:32.316Z,20.50
2018-06-12T03:55:00.748Z,20.40
2018-06-12T03:57:30.406Z,20.40
2018-06-12T03:59:58.837Z,20.40
2018-06-12T04:02:28.368Z,20.30
2018-06-12T04:04:57.492Z,20.40
2018-06-12T04:07:25.932Z,20.50
2018-06-12T04:09:54.380Z,20.60
2018-06-12T04:12:24.661Z,20.70
2018-06-12T04:14:53.186Z,20.70
2018-06-12T04:17:22.527Z,20.70
2018-06-12T04:19:51.216Z,20.70
2018-06-12T04:22:19.780Z,20.80
2018-06-12T04:24:48.275Z,20.90
2018-06-12T04:27:16.714Z,20.90
2018-06-12T04:29:48.876Z,20.90
2018-06-12T04:32:18.491Z,20.90
2018-06-12T04:34:47.128Z,20.80
2018-06-12T04:37:15.552Z,20.40
2018-06-12T04:39:43.986Z,20.40
2018-06-12T04:42:12.758Z,20.50
2018-06-12T04:44:42.248Z,20.60
2018-06-12T04:47:10.685Z,20.60
2018-06-12T04:49:39.111Z,20.70
2018-06-12T04:52:08.496Z,20.90
2018-06-12T04:54:37.300Z,20.90
2018-06-12T04:57:09.404Z,21.00
2018-06-12T04:59:37.921Z,21.10
2018-06-12T05:02:07.381Z,21.20
2018-06-12T05:04:35.852Z,21.30
2018-06-12T05:07:06.820Z,21.40
2018-06-12T05:09:35.604Z,21.10
2018-06-12T05:12:04.124Z,21.00
2018-06-12T05:14:33.608Z,20.90
2018-06-12T05:17:02.028Z,21.00
2018-06-12T05:19:30.495Z,20.80
2018-06-12T05:21:58.893Z,20.90
2018-06-12T05:24:27.357Z,21.00
2018-06-12T05:26:56.327Z,21.10
2018-06-12T05:29:24.756Z,21.20
2018-06-12T05:31:53.207Z,21.30
2018-06-12T05:34:22.099Z,21.30
2018-06-12T05:42:04.734Z,21.30
2018-06-12T05:44:33.170Z,21.30
2018-06-12T05:47:03.405Z,20.90
2018-06-12T05:49:32.173Z,20.90
2018-06-12T05:52:00.858Z,21.00
2018-06-12T05:55:55.299Z,21.10
2018-06-12T05:58:23.739Z,21.10
2018-06-12T06:00:54.696Z,21.00
2018-06-12T06:03:23.157Z,21.20
2018-06-12T06:05:52.245Z,21.30
2018-06-12T06:08:20.981Z,21.40
2018-06-12T06:10:50.170Z,21.40
2018-06-12T06:13:18.626Z,21.50
2018-06-12T06:15:47.899Z,21.60
2018-06-12T06:18:16.848Z,21.70
2018-06-12T06:20:46.373Z,21.80
2018-06-12T06:23:15.574Z,22.00
2018-06-12T06:25:44.076Z,22.00
2018-06-12T06:28:13.427Z,22.10
2018-06-12T06:30:42.142Z,22.20
2018-06-12T06:33:11.425Z,22.00
2018-06-12T06:35:39.966Z,22.10
2018-06-12T06:38:08.890Z,22.20
2018-06-12T06:40:38.174Z,22.20
2018-06-12T06:43:07.014Z,22.20
2018-06-12T06:45:35.838Z,22.20
2018-06-12T06:48:05.082Z,22.10
2018-06-12T06:50:33.674Z,22.20
2018-06-12T06:53:02.368Z,22.20
2018-06-12T06:55:31.209Z,22.30
2018-06-12T06:57:59.659Z,22.40
2018-06-12T07:00:32.082Z,22.10
2018-06-12T07:03:01.064Z,22.20
2018-06-12T07:05:30.197Z,22.20
2018-06-12T07:08:02.118Z,22.20
2018-06-12T07:10:31.060Z,22.30
2018-06-12T07:13:00.564Z,22.30
2018-06-12T07:15:29.364Z,22.30
2018-06-12T07:17:58.848Z,22.40
2018-06-12T07:20:39.141Z,22.50
2018-06-12T07:23:08.405Z,22.60
2018-06-12T07:25:37.109Z,22.60
2018-06-12T07:28:05.670Z,22.70
2018-06-12T07:30:35.387Z,22.60
2018-06-12T07:33:04.085Z,22.80
2018-06-12T07:35:33.070Z,22.80
2018-06-12T07:38:03.652Z,22.80
2018-06-12T07:40:33.060Z,22.80
2018-06-12T07:43:01.745Z,22.90
2018-06-12T07:45:31.401Z,23.00
2018-06-12T07:48:00.101Z,23.00
2018-06-12T07:51:32.295Z,23.00
2018-06-12T07:54:01.557Z,23.00
2018-06-12T07:56:30.077Z,23.00
2018-06-12T07:58:58.555Z,23.00
2018-06-12T08:01:27.463Z,22.80
2018-06-12T08:03:56.229Z,22.50
2018-06-12T08:06:24.711Z,22.50
2018-06-12T08:08:53.191Z,22.30
2018-06-12T08:11:22.389Z,22.10
2018-06-12T08:13:52.214Z,22.10
2018-06-12T08:16:21.564Z,22.00
2018-06-12T08:18:50.246Z,21.90
2018-06-12T08:21:20.359Z,21.90
2018-06-12T08:26:17.509Z,22.20
2018-06-12T08:28:46.012Z,22.30
2018-06-12T08:31:14.791Z,22.20
2018-06-12T08:36:11.601Z,22.20
2018-06-12T08:38:41.239Z,22.20
2018-06-12T08:41:11.144Z,22.00
2018-06-12T08:43:39.605Z,22.10
2018-06-12T08:46:08.282Z,22.20
2018-06-12T08:48:36.743Z,22.30
2018-06-12T08:51:05.146Z,22.40
2018-06-12T08:53:33.569Z,22.30
2018-06-12T08:56:01.956Z,22.10
2018-06-12T08:58:30.953Z,22.30
2018-06-12T09:00:59.384Z,22.30
2018-06-12T09:03:28.389Z,22.40
2018-06-12T09:05:56.788Z,22.30
2018-06-12T09:08:25.240Z,22.30
2018-06-12T09:10:53.649Z,22.10
2018-06-12T09:13:22.515Z,21.90
2018-06-12T09:15:50.908Z,21.90
2018-06-12T09:18:19.332Z,22.00
2018-06-12T09:20:47.757Z,22.10
2018-06-12T09:23:16.214Z,22.20
2018-06-12T09:25:44.860Z,22.40
2018-06-12T09:28:13.307Z,22.60
2018-06-12T09:30:41.748Z,22.60
2018-06-12T09:33:10.173Z,22.70
2018-06-12T09:35:38.588Z,22.60
2018-06-12T09:38:07.020Z,22.70
2018-06-12T09:40:35.417Z,22.80
2018-06-12T09:43:04.147Z,22.60
2018-06-12T09:45:32.579Z,22.60
2018-06-12T09:48:01.268Z,22.60
2018-06-12T09:50:29.672Z,22.60
2018-06-12T09:52:58.694Z,22.70
2018-06-12T09:55:28.221Z,22.90
2018-06-12T09:57:59.889Z,23.10
2018-06-12T10:00:34.759Z,23.10
2018-06-12T10:05:31.780Z,23.50
2018-06-12T10:08:01.275Z,23.60
2018-06-12T10:10:29.926Z,23.50
2018-06-12T10:12:58.611Z,23.50
2018-06-12T10:15:27.945Z,23.50
2018-06-12T10:17:56.740Z,23.60
2018-06-12T10:20:25.721Z,23.50
2018-06-12T10:22:55.577Z,23.50
2018-06-12T10:25:24.249Z,23.40
2018-06-12T10:27:53.728Z,23.50
2018-06-12T10:30:23.064Z,23.60
2018-06-12T10:32:51.965Z,23.80
2018-06-12T10:35:20.981Z,24.10
2018-06-12T10:37:50.873Z,24.20
2018-06-12T10:40:19.394Z,24.20
2018-06-12T12:31:14.692Z,21.50
2018-06-12T12:33:43.197Z,21.10
2018-06-12T12:43:37.277Z,21.70
2018-06-12T12:46:07.018Z,21.70
2018-06-12T12:48:38.267Z,21.60
2018-06-12T12:51:06.968Z,21.60
2018-06-12T13:50:37.724Z,21.30
2018-06-12T13:55:35.408Z,20.90
2018-06-12T13:58:04.400Z,21.00
2018-06-12T14:00:34.355Z,21.00
2018-06-12T14:03:03.483Z,21.00
2018-06-12T14:05:32.680Z,21.00
2018-06-12T14:08:01.141Z,21.00
2018-06-12T14:10:30.229Z,21.00
2018-06-12T14:12:58.676Z,20.90
2018-06-12T14:15:28.144Z,20.90
2018-06-12T14:17:57.551Z,20.90
2018-06-12T14:20:26.536Z,21.10
2018-06-12T14:22:54.996Z,21.30
2018-06-12T14:25:24.524Z,21.40
2018-06-12T14:27:53.180Z,21.50
2018-06-12T14:30:21.623Z,21.60
2018-06-12T14:32:50.286Z,21.60
2018-06-12T14:35:19.996Z,21.70
2018-06-12T14:37:48.826Z,21.70
2018-06-12T14:40:17.262Z,21.60
2018-06-12T14:42:46.405Z,21.60
2018-06-12T14:45:15.207Z,21.60
2018-06-12T14:47:44.346Z,21.50
2018-06-12T14:50:13.175Z,21.50
2018-06-12T14:52:42.349Z,21.60
2018-06-12T14:55:11.892Z,21.70
2018-06-12T14:57:41.264Z,21.60
2018-06-12T15:00:10.029Z,21.80
2018-06-12T15:02:38.525Z,21.80
2018-06-12T15:05:07.556Z,22.00
2018-06-12T15:07:37.607Z,21.90
2018-06-12T15:10:12.289Z,21.90
2018-06-12T15:12:41.390Z,22.00
2018-06-12T15:15:10.908Z,22.10
2018-06-12T15:17:39.364Z,22.10
2018-06-12T15:20:08.787Z,22.10
2018-06-12T15:22:38.339Z,22.10
2018-06-12T15:25:08.092Z,22.10
2018-06-12T15:27:36.952Z,22.00
2018-06-12T15:30:05.539Z,21.90
2018-06-12T15:32:34.373Z,22.00
2018-06-12T15:35:04.130Z,22.50
2018-06-12T15:37:34.888Z,22.70
2018-06-12T15:40:03.357Z,22.70
2018-06-12T15:42:32.565Z,23.00
2018-06-12T15:45:00.977Z,23.10
2018-06-12T15:47:30.751Z,23.10
2018-06-12T15:50:00.664Z,23.50
2018-06-12T15:52:29.341Z,23.90
2018-06-12T15:54:57.772Z,24.00
2018-06-12T15:57:27.884Z,24.00
2018-06-12T15:59:56.889Z,23.90
2018-06-12T16:02:26.306Z,23.70
2018-06-12T16:04:55.951Z,23.60
2018-06-12T16:07:24.385Z,23.70
2018-06-12T16:09:53.085Z,23.50
2018-06-12T16:12:21.508Z,23.40
2018-06-12T16:14:50.172Z,23.20
2018-06-12T16:17:18.613Z,23.20
2018-06-12T16:19:47.925Z,23.00
2018-06-12T16:22:20.216Z,23.10
2018-06-12T16:27:18.606Z,23.10
2018-06-12T16:29:47.707Z,23.10
2018-06-12T16:32:16.136Z,23.00
2018-06-12T16:34:44.584Z,22.90
2018-06-12T16:37:13.020Z,23.00
2018-06-12T16:39:42.062Z,23.00
2018-06-12T16:42:10.611Z,22.90
2018-06-12T16:44:39.763Z,22.90
2018-06-12T16:47:08.404Z,23.00
2018-06-12T16:49:37.897Z,23.00
2018-06-12T16:52:06.989Z,23.00
2018-06-12T16:54:35.651Z,23.00
2018-06-12T16:57:04.771Z,23.00
2018-06-12T16:59:33.504Z,22.90
2018-06-12T17:02:02.777Z,22.90
2018-06-12T17:04:36.718Z,22.80
2018-06-12T17:07:09.116Z,22.80
2018-06-12T17:09:38.012Z,22.70
2018-06-12T17:12:06.964Z,22.60
2018-06-12T17:14:35.948Z,22.60
2018-06-12T17:17:04.393Z,22.70
2018-06-12T17:19:33.717Z,22.60
2018-06-12T17:22:02.710Z,22.60
2018-06-12T17:24:31.356Z,22.60
2018-06-12T17:27:01.169Z,22.60
2018-06-12T17:29:30.197Z,22.60
2018-06-12T17:31:59.469Z,22.50
2018-06-12T17:34:28.874Z,22.40
2018-06-12T17:36:57.324Z,22.30
2018-06-12T17:39:26.666Z,22.30
2018-06-12T17:41:55.749Z,22.40
2018-06-12T17:44:24.185Z,22.50
2018-06-12T17:46:53.554Z,22.50
2018-06-12T17:49:21.998Z,22.60
2018-06-12T17:51:50.421Z,22.70
2018-06-12T17:54:19.189Z,22.60
2018-06-12T17:56:47.932Z,22.60
2018-06-12T18:01:45.138Z,22.70
2018-06-12T18:04:14.361Z,22.80
2018-06-12T18:07:13.591Z,22.60
2018-06-12T18:09:42.292Z,22.50
2018-06-12T18:12:10.752Z,22.30
2018-06-12T18:14:39.208Z,22.30
2018-06-12T18:17:08.324Z,22.30
2018-06-12T18:19:37.312Z,22.30
2018-06-12T18:22:05.843Z,22.30
2018-06-12T18:24:34.588Z,22.30
2018-06-12T18:27:03.429Z,22.20
2018-06-12T18:29:33.252Z,22.10
2018-06-12T18:32:01.906Z,22.20
2018-06-12T18:34:30.931Z,22.10
2018-06-12T18:36:59.360Z,21.90
2018-06-12T18:39:28.340Z,21.70
2018-06-12T18:41:57.415Z,21.50
2018-06-12T18:44:25.877Z,21.50
2018-06-12T18:46:54.301Z,21.40
2018-06-12T18:49:22.950Z,21.40
2018-06-12T18:51:51.816Z,21.40
2018-06-12T18:54:20.319Z,21.30
2018-06-12T18:56:49.668Z,21.30
2018-06-12T18:59:18.120Z,21.30
2018-06-12T19:01:46.539Z,21.40
2018-06-12T19:04:15.406Z,21.40
2018-06-12T19:06:44.782Z,21.50
2018-06-12T19:09:13.958Z,21.50
2018-06-12T19:11:42.973Z,21.40
2018-06-12T19:14:15.047Z,21.40
2018-06-12T19:16:44.522Z,21.30
2018-06-12T19:19:19.674Z,21.30
2018-06-12T19:21:49.158Z,21.20
2018-06-12T19:24:18.192Z,21.20
2018-06-12T19:26:46.910Z,21.20
2018-06-12T19:29:15.360Z,21.20
2018-06-12T19:34:19.724Z,21.20
2018-06-12T19:37:19.481Z,21.20
2018-06-12T19:39:48.680Z,21.20
2018-06-12T19:42:17.126Z,21.10
2018-06-12T21:01:04.536Z,21.10
2018-06-12T21:03:33.703Z,19.70
2018-06-12T21:06:02.553Z,19.80
2018-06-12T21:08:32.581Z,19.80
2018-06-12T21:11:01.017Z,20.00
2018-06-12T21:13:29.475Z,20.00
2018-06-12T21:15:59.735Z,20.00
2018-06-12T21:18:28.424Z,20.10
2018-06-12T21:20:56.839Z,20.10
2018-06-12T21:23:25.684Z,20.10
2018-06-12T21:25:54.575Z,20.00
2018-06-12T21:28:23.720Z,20.00
2018-06-12T21:30:52.720Z,20.10
2018-06-12T21:33:21.584Z,20.00
2018-06-12T21:35:51.368Z,20.00
2018-06-12T21:38:20.488Z,20.00
2018-06-12T21:40:49.224Z,19.90
2018-06-12T21:43:17.697Z,19.90
2018-06-12T21:45:46.392Z,19.70
2018-06-12T21:48:14.832Z,19.80
2018-06-12T21:50:43.298Z,19.80
2018-06-12T21:53:11.760Z,19.80
2018-06-12T21:55:40.324Z,19.80
2018-06-12T21:58:08.989Z,19.80
2018-06-12T22:00:38.718Z,19.80
2018-06-12T22:03:07.889Z,19.80
2018-06-12T22:05:37.657Z,19.80
2018-06-12T22:09:31.804Z,19.80
2018-06-12T22:12:01.239Z,19.70
2018-06-12T22:14:30.516Z,19.70
2018-06-12T22:16:59.372Z,19.70
2018-06-12T22:19:28.949Z,19.60
2018-06-12T22:21:57.438Z,19.60
2018-06-12T22:24:26.958Z,19.60
2018-06-12T22:26:56.349Z,19.50
2018-06-12T22:29:24.793Z,19.60
2018-06-12T22:31:53.210Z,19.50
2018-06-12T22:34:23.431Z,19.60
2018-06-12T22:36:51.839Z,19.50
2018-06-12T22:39:20.876Z,19.30
2018-06-12T22:41:49.514Z,19.40
2018-06-12T22:44:18.340Z,19.20
2018-06-12T22:46:48.183Z,19.20
2018-06-12T22:49:17.203Z,19.00
2018-06-12T22:51:51.101Z,18.80
2018-06-12T22:54:19.745Z,18.60
2018-06-12T22:56:48.793Z,18.60
